Time;durP1;ratioP1;P1;durP2;ratioP2;P2;SDS_P1;SDS_P2;PMS_P1;PMS_P2;Temp;Humidity;BMP_temperature;BMP_pressure;BME280_temperature;BME280_humidity;BME280_pressure;Samples;Min_cycle;Max_cycle;Signal;HPM_P1;HPM_P2
2021/12/10 07:52:25;;;;;;;1.63;1.53;;;-6.60;99.90;;;;;;5153478;27;20270;-76
2021/12/10 07:54:51;;;;;;;2.83;1.67;;;-6.60;99.90;;;;;;5152868;27;20423;-75
2021/12/10 07:57:18;;;;;;;2.20;1.80;;;-6.50;99.90;;;;;;5151636;27;20411;-76
2021/12/10 07:59:45;;;;;;;5.53;2.07;;;-6.50;99.90;;;;;;5153330;27;20174;-76
2021/12/10 08:02:11;;;;;;;1.83;1.60;;;-6.40;99.90;;;;;;5152489;27;20491;-76
2021/12/10 08:04:37;;;;;;;4.00;1.90;;;-6.30;99.90;;;;;;5151350;27;20530;-76
2021/12/10 08:07:05;;;;;;;3.27;1.77;;;-6.20;99.90;;;;;;5151370;27;20316;-76
2021/12/10 08:09:31;;;;;;;4.87;2.20;;;-6.00;99.90;;;;;;5152882;27;20611;-76
2021/12/10 08:11:56;;;;;;;5.10;2.20;;;-5.90;99.90;;;;;;5151285;27;20859;-76
2021/12/10 08:14:22;;;;;;;5.93;3.27;;;-6.00;99.90;;;;;;5152565;27;20194;-76
2021/12/10 08:16:48;;;;;;;20.57;8.97;;;-6.00;99.90;;;;;;5152604;27;20173;-76
2021/12/10 08:19:14;;;;;;;22.57;9.40;;;-6.00;99.90;;;;;;5152423;27;20168;-76
2021/12/10 08:21:41;;;;;;;23.40;9.10;;;-5.80;99.90;;;;;;5152378;27;20178;-76
2021/12/10 08:24:07;;;;;;;10.37;4.10;;;-5.70;99.90;;;;;;5151202;27;20467;-76
2021/12/10 08:26:33;;;;;;;6.10;3.23;;;-5.40;99.90;;;;;;5151298;27;20462;-77
2021/12/10 08:28:59;;;;;;;7.33;4.00;;;-5.10;99.90;;;;;;5151199;27;20172;-76
2021/12/10 08:31:29;;;;;;;5.03;2.60;;;-4.80;99.90;;;;;;5152415;27;20454;-76
2021/12/10 08:33:55;;;;;;;3.87;2.50;;;-4.80;99.90;;;;;;5152269;27;20837;-76
2021/12/10 08:36:22;;;;;;;5.20;2.90;;;-4.60;99.90;;;;;;5151587;27;20563;-76
2021/12/10 08:38:49;;;;;;;2.50;2.13;;;-4.30;99.90;;;;;;5151218;27;20401;-77
2021/12/10 08:41:21;;;;;;;3.17;2.37;;;-3.90;99.90;;;;;;5150746;27;20493;-76
2021/12/10 08:43:48;;;;;;;3.03;2.27;;;-3.50;99.90;;;;;;5152640;27;20767;-76
2021/12/10 08:46:15;;;;;;;3.30;1.97;;;-3.50;99.90;;;;;;5151094;27;20405;-76
2021/12/10 08:48:42;;;;;;;1.93;1.63;;;-3.70;99.90;;;;;;5151126;27;20960;-77
2021/12/10 08:51:15;;;;;;;2.30;1.83;;;-3.90;99.90;;;;;;5151751;27;20494;-77
2021/12/10 08:53:41;;;;;;;3.13;1.97;;;-4.00;99.90;;;;;;5152807;27;20917;-76
2021/12/10 08:56:08;;;;;;;3.13;1.90;;;-4.10;99.90;;;;;;5152338;27;20809;-76
2021/12/10 08:58:33;;;;;;;4.47;2.03;;;-4.20;99.90;;;;;;5151863;27;20400;-76
2021/12/10 09:01:06;;;;;;;3.20;2.07;;;-4.20;99.90;;;;;;5151938;27;20740;-76
2021/12/10 09:03:33;;;;;;;5.07;1.60;;;-4.10;99.90;;;;;;5137354;27;20165;-76
2021/12/10 09:05:59;;;;;;;2.90;1.80;;;-4.20;99.90;;;;;;5136517;27;20509;-76
2021/12/10 09:08:25;;;;;;;2.43;1.77;;;-4.20;99.90;;;;;;5137646;27;20401;-76
2021/12/10 09:10:51;;;;;;;1.97;1.50;;;-4.30;99.90;;;;;;5136184;27;20534;-76
2021/12/10 09:13:20;;;;;;;2.67;2.40;;;-4.40;99.90;;;;;;5136963;27;20258;-76
2021/12/10 09:15:49;;;;;;;3.27;1.60;;;-4.40;99.90;;;;;;5139840;27;20407;-76
2021/12/10 09:18:16;;;;;;;3.50;1.87;;;-4.30;99.90;;;;;;5140219;27;20905;-76
2021/12/10 09:20:45;;;;;;;1.40;1.30;;;-4.40;99.90;;;;;;5138680;27;20420;-76
2021/12/10 09:23:14;;;;;;;1.57;1.20;;;-4.40;99.90;;;;;;5137315;27;20442;-76
2021/12/10 09:25:41;;;;;;;4.07;1.50;;;-4.40;99.90;;;;;;5137254;27;20428;-76
2021/12/10 09:28:08;;;;;;;5.27;1.97;;;-4.30;99.90;;;;;;5137130;27;20464;-76
2021/12/10 09:30:35;;;;;;;2.07;1.57;;;-4.30;99.90;;;;;;5136891;27;20528;-76
2021/12/10 09:33:01;;;;;;;1.30;1.20;;;-4.40;99.90;;;;;;5135876;27;20416;-76
2021/12/10 09:35:30;;;;;;;2.23;1.87;;;-4.30;99.90;;;;;;5137125;27;20427;-76
2021/12/10 09:37:56;;;;;;;2.10;1.70;;;-4.00;99.90;;;;;;5137022;27;20173;-76
2021/12/10 09:40:31;;;;;;;3.77;2.17;;;-4.30;99.90;;;;;;5136731;27;20417;-76
2021/12/10 09:42:56;;;;;;;4.63;2.20;;;-4.20;99.90;;;;;;5136966;27;20871;-76
2021/12/10 09:45:25;;;;;;;4.57;2.20;;;-4.10;99.90;;;;;;5137021;27;20440;-76
2021/12/10 09:47:51;;;;;;;3.70;2.60;;;-4.10;99.90;;;;;;5136861;27;20170;-76
2021/12/10 09:50:20;;;;;;;4.20;2.77;;;-4.30;99.90;;;;;;5135205;27;21007;-76
2021/12/10 09:52:46;;;;;;;4.83;2.80;;;-4.50;99.90;;;;;;5136841;27;20636;-76
2021/12/10 09:55:16;;;;;;;8.67;3.07;;;-4.70;99.90;;;;;;5135441;27;20422;-76
2021/12/10 09:57:44;;;;;;;5.33;2.93;;;-4.60;99.90;;;;;;5135544;27;20216;-76
2021/12/10 10:00:17;;;;;;;4.63;2.33;;;-4.60;99.90;;;;;;5135211;27;20401;-76
2021/12/10 10:02:44;;;;;;;4.13;2.60;;;-4.50;99.90;;;;;;5136757;27;20419;-76
2021/12/10 10:05:11;;;;;;;6.50;2.40;;;-4.50;99.90;;;;;;5136469;27;20433;-76
2021/12/10 10:07:38;;;;;;;4.90;3.23;;;-4.50;99.90;;;;;;5136923;27;20434;-76
2021/12/10 10:10:14;;;;;;;3.63;2.40;;;-4.40;99.90;;;;;;5136195;27;20455;-76
2021/12/10 10:12:44;;;;;;;5.10;2.80;;;-4.20;99.90;;;;;;5135193;27;20474;-76
2021/12/10 10:15:16;;;;;;;4.80;3.17;;;-4.00;99.90;;;;;;5135439;27;20429;-76
2021/12/10 10:17:42;;;;;;;5.23;2.80;;;-3.90;99.90;;;;;;5136201;27;20385;-76
2021/12/10 10:20:11;;;;;;;4.03;3.00;;;-3.80;99.90;;;;;;5135992;27;20416;-76
2021/12/10 10:22:37;;;;;;;13.33;7.97;;;-3.80;99.90;;;;;;5136247;27;20409;-76
2021/12/10 10:25:08;;;;;;;4.53;2.90;;;-3.70;99.90;;;;;;5134707;27;20522;-76
2021/12/10 10:27:35;;;;;;;3.63;2.50;;;-3.70;99.90;;;;;;5135049;27;20753;-76
2021/12/10 10:30:18;;;;;;;6.60;4.20;;;-3.60;99.90;;;;;;5136117;27;20406;-76
2021/12/10 10:32:47;;;;;;;8.53;5.10;;;-3.40;99.90;;;;;;5134654;27;20740;-76
2021/12/10 10:35:17;;;;;;;9.93;4.17;;;-3.30;99.90;;;;;;5135873;27;20433;-76
2021/12/10 10:37:44;;;;;;;10.23;4.33;;;-3.30;99.90;;;;;;5135023;27;20762;-76
2021/12/10 10:40:14;;;;;;;8.30;3.80;;;-3.30;99.90;;;;;;5134279;27;20408;-76
2021/12/10 10:42:41;;;;;;;4.90;3.10;;;-3.20;99.90;;;;;;5136083;27;20400;-76
2021/12/10 10:45:12;;;;;;;4.07;2.87;;;-3.20;99.90;;;;;;5135513;27;20839;-76
2021/12/10 10:47:37;;;;;;;6.57;3.63;;;-3.00;99.90;;;;;;5134414;27;20424;-76
2021/12/10 10:50:20;;;;;;;7.50;3.90;;;-2.90;99.90;;;;;;5133981;27;20408;-76
2021/12/10 10:52:49;;;;;;;12.23;3.97;;;-2.80;99.90;;;;;;5134453;27;20252;-76
2021/12/10 10:55:20;;;;;;;6.57;3.90;;;-2.70;99.90;;;;;;5135314;27;20932;-76
2021/12/10 10:58:25;;;;;;;5.87;3.10;;;-2.50;99.90;;;;;;5134417;27;20399;-76
2021/12/10 11:01:24;;;;;;;4.47;3.50;;;-2.60;99.90;;;;;;5055490;28;20431;-76
2021/12/10 11:04:14;;;;;;;6.07;3.80;;;-2.80;99.90;;;;;;5119164;27;20440;-76
2021/12/10 11:06:44;;;;;;;5.87;3.67;;;-2.70;99.90;;;;;;5134095;27;20988;-76
2021/12/10 11:09:14;;;;;;;5.23;4.03;;;-2.40;99.90;;;;;;5134065;27;20408;-76
2021/12/10 11:11:48;;;;;;;7.03;4.27;;;-2.40;99.90;;;;;;5135057;27;20448;-76
2021/12/10 11:14:21;;;;;;;6.43;4.53;;;-2.20;99.90;;;;;;5135193;27;20923;-76
2021/12/10 11:16:49;;;;;;;5.07;3.47;;;-2.00;99.90;;;;;;5134219;27;20896;-76
2021/12/10 11:19:20;;;;;;;4.70;3.60;;;-1.90;99.90;;;;;;5133771;27;20404;-76
2021/12/10 11:21:53;;;;;;;4.50;2.87;;;-1.70;99.90;;;;;;5135027;27;20395;-76
2021/12/10 11:24:34;;;;;;;5.60;3.47;;;-1.70;99.90;;;;;;5135229;27;20416;-76
2021/12/10 11:27:20;;;;;;;6.80;3.50;;;-1.80;99.90;;;;;;5133760;27;20404;-76
2021/12/10 11:29:52;;;;;;;6.10;3.80;;;-2.00;99.90;;;;;;5135124;27;20401;-76
2021/12/10 11:32:44;;;;;;;9.83;5.27;;;-1.90;99.90;;;;;;5135567;27;20455;-76
2021/12/10 11:35:18;;;;;;;10.67;5.70;;;-1.90;99.90;;;;;;5136989;27;20478;-77
2021/12/10 11:37:59;;;;;;;6.43;3.60;;;-1.80;99.90;;;;;;5135560;27;20866;-77
2021/12/10 11:40:35;;;;;;;5.43;3.77;;;-1.80;99.90;;;;;;5136243;27;20396;-77
2021/12/10 11:46:51;;;;;;;7.03;3.90;;;-2.10;99.90;;;;;;5135536;27;20506;-77
2021/12/10 11:49:38;;;;;;;4.20;3.47;;;-2.00;99.90;;;;;;5128982;27;20420;-77
2021/12/10 11:52:14;;;;;;;5.93;4.47;;;-1.90;99.90;;;;;;5127876;28;20791;-77
2021/12/10 11:54:59;;;;;;;5.00;3.60;;;-1.90;99.90;;;;;;5135178;28;20909;-76
2021/12/10 11:57:29;;;;;;;5.73;3.17;;;-1.90;99.90;;;;;;5134928;28;20408;-77
2021/12/10 11:59:59;;;;;;;8.27;4.00;;;-1.80;99.90;;;;;;5117438;28;20502;-76
2021/12/10 12:02:30;;;;;;;5.97;4.00;;;-1.80;99.90;;;;;;5113650;28;20491;-77
2021/12/10 12:05:09;;;;;;;4.70;3.13;;;-1.60;99.90;;;;;;5117672;28;20463;-77
2021/12/10 12:07:43;;;;;;;5.50;3.20;;;-1.60;99.90;;;;;;5127246;28;20461;-77
2021/12/10 12:10:26;;;;;;;5.50;3.43;;;-1.40;99.90;;;;;;5134637;28;20396;-77
2021/12/10 12:15:50;;;;;;;4.13;2.80;;;-1.30;99.90;;;;;;5135044;28;20495;-77
2021/12/10 12:18:26;;;;;;;4.83;2.60;;;-1.20;99.90;;;;;;5124739;28;20441;-77
2021/12/10 12:26:37;;;;;;;10.43;4.37;;;-0.70;99.90;;;;;;5114482;28;20389;-77
2021/12/10 12:29:15;;;;;;;3.60;2.90;;;-0.50;99.90;;;;;;5113080;28;20478;-76
2021/12/10 12:31:50;;;;;;;5.47;3.50;;;-0.30;99.90;;;;;;5114676;28;20582;-76
2021/12/10 12:34:17;;;;;;;6.37;4.37;;;0.00;99.90;;;;;;5114122;28;20426;-77
2021/12/10 12:37:05;;;;;;;3.77;2.63;;;0.10;99.90;;;;;;5112813;28;20493;-76
2021/12/10 12:39:46;;;;;;;4.57;3.00;;;0.20;99.90;;;;;;5118746;28;20767;-76
2021/12/10 12:42:26;;;;;;;4.43;3.30;;;0.30;99.90;;;;;;5117621;28;20408;-76
2021/12/10 12:44:52;;;;;;;7.80;4.00;;;0.30;99.90;;;;;;5116883;28;20443;-76
2021/12/10 12:47:25;;;;;;;8.93;3.83;;;0.20;99.90;;;;;;5118619;28;20443;-77
2021/12/10 12:49:57;;;;;;;2.70;2.50;;;0.30;99.90;;;;;;5117933;28;20163;-78
2021/12/10 12:52:34;;;;;;;3.10;2.33;;;0.40;99.90;;;;;;5116345;28;20475;-77
2021/12/10 12:55:05;;;;;;;2.17;1.97;;;0.60;99.90;;;;;;5117871;28;20592;-77
2021/12/10 12:57:47;;;;;;;2.77;1.80;;;0.50;99.90;;;;;;5117560;28;20413;-77
2021/12/10 13:00:22;;;;;;;2.03;1.83;;;0.50;99.90;;;;;;5117465;28;20386;-77
2021/12/10 13:02:54;;;;;;;3.57;1.90;;;0.50;99.90;;;;;;5117345;28;20389;-77
2021/12/10 13:05:31;;;;;;;3.07;1.53;;;0.60;99.90;;;;;;5117010;28;20433;-77
2021/12/10 13:08:09;;;;;;;4.70;1.80;;;0.40;99.90;;;;;;5115852;28;20400;-78
2021/12/10 13:10:38;;;;;;;4.23;1.87;;;0.30;99.90;;;;;;5115506;28;20452;-77
2021/12/10 13:13:13;;;;;;;4.00;2.00;;;0.80;99.90;;;;;;5116872;28;20409;-77
2021/12/10 13:15:47;;;;;;;3.10;2.40;;;0.10;99.90;;;;;;5116727;28;20520;-77
2021/12/10 13:18:13;;;;;;;4.87;2.50;;;0.10;99.90;;;;;;5116781;28;20390;-77
2021/12/10 13:20:45;;;;;;;2.43;1.70;;;0.10;99.90;;;;;;5115621;28;20716;-77
2021/12/10 13:23:16;;;;;;;3.17;1.70;;;0.00;99.90;;;;;;5115611;28;20171;-77
2021/12/10 13:25:44;;;;;;;5.27;2.90;;;-0.10;99.90;;;;;;5116801;28;20504;-77
2021/12/10 13:28:10;;;;;;;7.10;2.93;;;0.00;99.90;;;;;;5115452;28;20417;-77
2021/12/10 13:30:42;;;;;;;6.23;3.27;;;0.00;99.90;;;;;;5115160;28;20556;-77
2021/12/10 13:33:15;;;;;;;2.67;1.87;;;0.00;99.90;;;;;;5118535;28;20152;-77
2021/12/10 13:35:41;;;;;;;2.10;1.90;;;-0.10;99.90;;;;;;5115296;28;20546;-77
2021/12/10 13:38:08;;;;;;;2.37;1.83;;;0.00;99.90;;;;;;5117960;28;20409;-76
2021/12/10 13:40:35;;;;;;;7.03;2.60;;;-0.10;99.90;;;;;;5118273;28;20439;-76
2021/12/10 13:43:06;;;;;;;2.20;1.80;;;0.00;99.90;;;;;;5116430;28;20413;-76
2021/12/10 13:45:36;;;;;;;2.80;2.13;;;-0.10;99.90;;;;;;5115066;28;20873;-77
2021/12/10 13:48:07;;;;;;;4.90;2.07;;;0.00;99.90;;;;;;5114907;28;20401;-77
2021/12/10 13:50:46;;;;;;;7.73;3.70;;;0.00;99.90;;;;;;5114803;28;20500;-77
2021/12/10 13:53:22;;;;;;;4.93;3.43;;;0.00;99.90;;;;;;5116311;28;20432;-77
2021/12/10 13:56:05;;;;;;;10.73;3.90;;;-0.10;99.90;;;;;;5116243;28;20489;-77
2021/12/10 13:58:50;;;;;;;14.90;7.13;;;0.00;99.90;;;;;;5116856;28;20390;-77
2021/12/10 14:01:17;;;;;;;6.63;4.80;;;-0.10;99.90;;;;;;5117269;28;20455;-77
2021/12/10 14:03:56;;;;;;;5.23;4.10;;;0.00;99.90;;;;;;5117189;28;20783;-76
2021/12/10 14:06:39;;;;;;;6.57;4.20;;;-0.10;99.90;;;;;;5116088;28;20488;-76
2021/12/10 14:09:40;;;;;;;16.23;8.90;;;-0.10;99.90;;;;;;5114955;28;20763;-76
2021/12/10 14:12:12;;;;;;;4.60;3.83;;;-0.10;99.90;;;;;;5114310;28;20451;-76
2021/12/10 14:14:42;;;;;;;6.77;3.90;;;-0.20;99.90;;;;;;5116125;28;20445;-78
2021/12/10 14:17:11;;;;;;;6.63;5.00;;;-0.20;99.90;;;;;;5115896;28;20393;-76
2021/12/10 14:19:49;;;;;;;8.00;5.03;;;-0.20;99.90;;;;;;5115722;28;20950;-75
2021/12/10 14:22:19;;;;;;;3.97;3.23;;;-0.20;99.90;;;;;;5115951;28;20452;-76
2021/12/10 14:24:47;;;;;;;3.37;2.37;;;-0.30;99.90;;;;;;5115659;28;20433;-76
2021/12/10 14:27:16;;;;;;;5.30;3.10;;;-0.20;99.90;;;;;;5114214;28;20409;-76
2021/12/10 14:29:44;;;;;;;3.20;2.67;;;-0.20;99.90;;;;;;5115514;28;20965;-75
2021/12/10 14:32:25;;;;;;;7.23;4.07;;;-0.20;99.90;;;;;;5115300;28;20453;-76
2021/12/10 14:35:07;;;;;;;5.47;3.50;;;-0.30;99.90;;;;;;5115337;28;20425;-76
2021/12/10 14:37:52;;;;;;;3.93;3.37;;;-0.20;99.90;;;;;;5116221;28;20397;-77
2021/12/10 14:40:20;;;;;;;4.57;3.03;;;-0.30;99.90;;;;;;5115379;28;20805;-78
2021/12/10 14:43:05;;;;;;;5.33;3.13;;;-0.30;99.90;;;;;;5113668;28;20441;-76
2021/12/10 14:45:31;;;;;;;6.30;4.00;;;-0.20;99.90;;;;;;5113893;28;20942;-76
2021/12/10 14:48:11;;;;;;;4.97;3.30;;;-0.20;99.90;;;;;;5112840;28;20416;-76
2021/12/10 14:50:37;;;;;;;5.37;3.47;;;-0.20;99.90;;;;;;5111633;28;20562;-76
2021/12/10 14:53:28;;;;;;;4.13;3.10;;;-0.20;99.90;;;;;;5113624;28;20767;-76
